createdAt,value
2022-12-17T00:01:10.496Z,81.68
2022-12-17T00:03:57.303Z,78.18
2022-12-17T00:06:43.628Z,77.68
2022-12-17T00:09:30.197Z,77.28
2022-12-17T00:12:16.182Z,86.00
2022-12-17T00:15:02.495Z,79.35
2022-12-17T00:17:49.339Z,79.05
2022-12-17T00:20:35.646Z,81.72
2022-12-17T00:23:22.700Z,80.50
2022-12-17T00:26:15.879Z,87.45
2022-12-17T00:29:02.317Z,85.50
2022-12-17T00:31:49.442Z,81.38
2022-12-17T00:34:35.630Z,82.03
2022-12-17T00:37:22.110Z,82.13
2022-12-17T00:40:08.738Z,84.43
2022-12-17T00:42:56.382Z,92.18
2022-12-17T00:45:42.967Z,87.85
2022-12-17T00:48:29.074Z,92.10
2022-12-17T00:51:15.548Z,87.93
2022-12-17T00:54:02.698Z,93.95
2022-12-17T00:56:49.171Z,94.72
2022-12-17T00:59:35.220Z,94.25
2022-12-17T01:03:55.208Z,94.05
2022-12-17T01:06:59.897Z,94.82
2022-12-17T01:09:49.819Z,96.88
2022-12-17T01:12:36.542Z,99.68
2022-12-17T01:15:23.485Z,95.47
2022-12-17T01:18:09.814Z,100.40
2022-12-17T01:20:57.189Z,108.03
2022-12-17T01:23:43.515Z,96.38
2022-12-17T01:26:30.801Z,95.63
2022-12-17T01:29:18.115Z,102.65
2022-12-17T01:32:04.589Z,96.00
2022-12-17T01:34:50.937Z,97.95
2022-12-17T01:37:37.894Z,100.15
2022-12-17T01:40:24.937Z,97.45
2022-12-17T01:43:11.246Z,97.10
2022-12-17T01:45:58.713Z,100.30
2022-12-17T01:48:49.167Z,97.07
2022-12-17T01:51:36.145Z,102.80
2022-12-17T01:54:22.989Z,103.53
2022-12-17T01:57:09.479Z,100.32
2022-12-17T02:00:02.518Z,97.47
2022-12-17T02:03:01.265Z,97.03
2022-12-17T02:05:59.578Z,97.82
2022-12-17T02:08:49.593Z,99.50
2022-12-17T02:11:48.130Z,91.07
2022-12-17T02:14:49.345Z,90.70
2022-12-17T02:17:38.638Z,90.13
2022-12-17T02:20:32.541Z,77.15
2022-12-17T02:23:25.311Z,85.05
2022-12-17T02:26:14.946Z,77.45
2022-12-17T02:29:06.218Z,80.20
2022-12-17T02:31:52.824Z,75.95
2022-12-17T02:34:39.516Z,75.10
2022-12-17T02:37:25.569Z,78.43
2022-12-17T02:40:11.733Z,79.50
2022-12-17T02:42:58.002Z,78.95
2022-12-17T02:45:48.284Z,75.30
2022-12-17T02:48:37.048Z,75.80
2022-12-17T02:51:23.481Z,76.90
2022-12-17T02:54:13.379Z,79.75
2022-12-17T02:57:00.075Z,82.68
2022-12-17T02:59:46.388Z,80.18
2022-12-17T03:02:35.731Z,82.43
2022-12-17T03:05:43.845Z,76.05
2022-12-17T03:08:28.711Z,82.68
2022-12-17T03:11:16.548Z,88.72
2022-12-17T03:14:02.727Z,83.93
2022-12-17T03:16:49.474Z,82.88
2022-12-17T03:19:35.465Z,85.60
2022-12-17T03:22:21.901Z,81.68
2022-12-17T03:25:08.897Z,90.75
2022-12-17T03:27:56.150Z,80.53
2022-12-17T03:30:48.525Z,84.68
2022-12-17T03:33:36.037Z,92.40
2022-12-17T03:36:22.447Z,92.43
2022-12-17T03:39:08.909Z,92.10
2022-12-17T03:41:54.626Z,90.50
2022-12-17T03:44:40.782Z,89.38
2022-12-17T03:47:27.235Z,93.85
2022-12-17T03:50:14.591Z,93.95
2022-12-17T03:53:01.048Z,88.13
2022-12-17T03:55:49.212Z,93.30
2022-12-17T03:58:35.210Z,89.75
2022-12-17T04:01:25.072Z,88.25
2022-12-17T04:04:11.473Z,94.57
2022-12-17T04:06:58.292Z,85.68
2022-12-17T04:09:44.615Z,99.82
2022-12-17T04:12:31.740Z,92.63
2022-12-17T04:15:20.131Z,90.30
2022-12-17T04:18:06.963Z,94.10
2022-12-17T04:20:52.962Z,94.07
2022-12-17T04:23:39.569Z,94.30
2022-12-17T04:26:25.798Z,101.40
2022-12-17T04:29:12.180Z,95.53
2022-12-17T04:31:58.498Z,90.68
2022-12-17T04:34:45.738Z,89.45
2022-12-17T04:37:31.860Z,94.40
2022-12-17T04:40:19.625Z,101.35
2022-12-17T04:43:06.333Z,102.75
2022-12-17T04:45:53.310Z,97.85
2022-12-17T04:48:42.719Z,90.80
2022-12-17T04:51:36.377Z,95.45
2022-12-17T04:54:30.147Z,98.80
2022-12-17T04:57:16.589Z,97.95
2022-12-17T05:00:06.373Z,95.55
2022-12-17T05:02:53.569Z,104.50
2022-12-17T05:05:39.644Z,98.00
2022-12-17T05:08:26.538Z,95.55
2022-12-17T05:11:12.267Z,97.15
2022-12-17T05:13:58.957Z,95.47
2022-12-17T05:16:45.360Z,98.50
2022-12-17T05:19:31.866Z,93.80
2022-12-17T05:22:18.152Z,104.32
2022-12-17T05:25:15.382Z,97.10
2022-12-17T05:28:01.769Z,98.32
2022-12-17T05:30:49.019Z,102.40
2022-12-17T05:33:35.557Z,92.45
2022-12-17T05:36:22.697Z,92.90
2022-12-17T05:39:09.433Z,97.43
2022-12-17T05:41:56.457Z,98.22
2022-12-17T05:44:42.696Z,99.60
2022-12-17T05:47:29.003Z,103.25
2022-12-17T05:50:15.090Z,95.55
2022-12-17T05:53:01.585Z,94.82
2022-12-17T05:55:48.146Z,97.45
2022-12-17T05:58:34.273Z,97.38
2022-12-17T06:01:21.664Z,97.10
2022-12-17T06:04:12.814Z,96.53
2022-12-17T06:06:59.202Z,94.32
2022-12-17T06:09:45.480Z,93.28
2022-12-17T06:12:31.855Z,96.25
2022-12-17T06:15:19.363Z,98.97
2022-12-17T06:18:16.693Z,94.43
2022-12-17T06:21:05.715Z,95.93
2022-12-17T06:23:51.526Z,112.00
2022-12-17T06:26:39.825Z,100.47
2022-12-17T06:29:26.198Z,110.78
2022-12-17T06:32:13.919Z,120.65
2022-12-17T06:35:00.123Z,114.45
2022-12-17T06:37:46.873Z,114.70
2022-12-17T06:40:35.727Z,113.95
2022-12-17T06:43:21.998Z,120.22
2022-12-17T06:46:11.635Z,118.72
2022-12-17T06:48:58.076Z,117.93
2022-12-17T06:51:43.889Z,123.40
2022-12-17T06:54:29.843Z,117.05
2022-12-17T06:57:15.998Z,124.65
2022-12-17T07:00:02.432Z,119.20
2022-12-17T07:02:49.200Z,116.50
2022-12-17T07:05:35.563Z,123.70
2022-12-17T07:08:21.918Z,124.85
2022-12-17T07:11:10.964Z,122.68
2022-12-17T07:13:57.183Z,115.47
2022-12-17T07:16:44.297Z,118.35
2022-12-17T07:19:31.188Z,117.40
2022-12-17T07:22:20.640Z,122.68
2022-12-17T07:25:07.154Z,118.80
2022-12-17T07:27:53.523Z,104.13
2022-12-17T07:30:44.087Z,117.38
2022-12-17T07:33:30.715Z,118.90
2022-12-17T07:36:16.905Z,108.82
2022-12-17T07:39:04.025Z,116.22
2022-12-17T07:41:50.509Z,118.70
2022-12-17T07:44:36.571Z,118.47
2022-12-17T07:47:22.968Z,118.07
2022-12-17T07:50:09.226Z,116.28
2022-12-17T07:52:55.278Z,114.13
2022-12-17T07:55:42.431Z,123.47
2022-12-17T07:58:29.709Z,116.03
2022-12-17T08:01:19.647Z,115.95
2022-12-17T08:04:06.341Z,113.43
2022-12-17T08:06:58.417Z,122.10
2022-12-17T08:09:47.048Z,106.38
2022-12-17T08:12:35.006Z,110.68
2022-12-17T08:15:21.344Z,116.57
2022-12-17T08:18:08.530Z,122.40
2022-12-17T08:20:55.300Z,121.85
2022-12-17T08:23:42.117Z,118.53
2022-12-17T08:26:28.157Z,112.53
2022-12-17T08:29:15.621Z,116.05
2022-12-17T08:32:01.698Z,119.35
2022-12-17T08:34:48.207Z,119.07
2022-12-17T08:37:34.598Z,119.70
2022-12-17T08:40:20.842Z,115.63
2022-12-17T08:43:08.110Z,122.88
2022-12-17T08:45:55.182Z,117.47
2022-12-17T08:48:41.051Z,109.03
2022-12-17T08:51:27.364Z,119.00
2022-12-17T08:54:13.858Z,108.35
2022-12-17T08:57:00.131Z,117.60
2022-12-17T08:59:46.614Z,109.20
2022-12-17T09:02:33.258Z,100.22
2022-12-17T09:05:22.018Z,110.72
2022-12-17T09:08:19.348Z,111.30
2022-12-17T09:11:05.748Z,105.18
2022-12-17T09:13:52.397Z,105.10
2022-12-17T09:16:40.297Z,105.30
2022-12-17T09:19:27.557Z,109.97
2022-12-17T09:22:15.291Z,106.20
2022-12-17T09:25:01.976Z,111.43
2022-12-17T09:27:48.007Z,106.95
2022-12-17T09:30:34.251Z,116.80
2022-12-17T09:33:20.600Z,105.25
2022-12-17T09:36:06.770Z,119.28
2022-12-17T09:38:55.674Z,113.72
2022-12-17T09:41:47.003Z,110.53
2022-12-17T09:44:52.643Z,110.80
2022-12-17T09:47:48.011Z,114.35
2022-12-17T09:50:35.071Z,107.22
2022-12-17T09:53:23.092Z,110.25
2022-12-17T09:56:12.535Z,111.55
2022-12-17T09:58:59.338Z,118.93
2022-12-17T10:01:53.727Z,109.10
2022-12-17T10:04:42.701Z,119.57
2022-12-17T10:07:32.723Z,113.22
2022-12-17T10:10:20.660Z,114.18
2022-12-17T10:13:07.813Z,119.32
2022-12-17T10:15:55.020Z,118.00
2022-12-17T10:18:41.526Z,113.43
2022-12-17T10:21:43.704Z,116.05
2022-12-17T10:24:30.169Z,118.90
2022-12-17T10:27:21.230Z,119.15
2022-12-17T10:30:08.155Z,116.53
2022-12-17T10:32:54.468Z,114.53
2022-12-17T10:35:42.842Z,113.85
2022-12-17T10:38:30.259Z,116.75
2022-12-17T10:41:17.016Z,114.93
2022-12-17T10:44:05.190Z,118.05
2022-12-17T10:46:53.477Z,119.63
2022-12-17T10:50:00.418Z,117.97
2022-12-17T10:52:51.811Z,112.88
2022-12-17T10:55:49.838Z,118.32
2022-12-17T10:58:38.931Z,115.50
2022-12-17T11:01:46.559Z,106.85
2022-12-17T11:04:38.966Z,110.13
2022-12-17T11:07:26.139Z,110.65
2022-12-17T11:10:14.714Z,103.68
2022-12-17T11:13:03.366Z,115.80
2022-12-17T11:16:02.018Z,105.97
2022-12-17T11:19:03.903Z,109.10
2022-12-17T11:21:59.907Z,111.63
2022-12-17T11:25:09.050Z,107.68
2022-12-17T11:28:04.249Z,111.63
2022-12-17T11:30:59.204Z,108.28
2022-12-17T11:33:56.038Z,112.88
2022-12-17T11:37:18.354Z,118.10
2022-12-17T11:40:18.933Z,113.38
2022-12-17T11:43:33.914Z,106.47
2022-12-17T11:46:33.898Z,119.53
2022-12-17T11:49:31.021Z,111.25
2022-12-17T11:52:42.656Z,107.15
2022-12-17T11:55:39.870Z,116.18
2022-12-17T11:58:53.482Z,110.38
2022-12-17T12:02:20.300Z,113.82
2022-12-17T12:05:30.022Z,104.20
2022-12-17T12:08:31.580Z,113.85
2022-12-17T12:11:38.681Z,120.15
2022-12-17T12:14:37.465Z,114.70
2022-12-17T12:17:42.373Z,113.82
2022-12-17T12:20:57.620Z,115.63
2022-12-17T12:24:14.170Z,113.95
2022-12-17T12:27:05.397Z,118.20
2022-12-17T12:30:20.339Z,110.70
2022-12-17T12:33:22.352Z,115.10
2022-12-17T12:36:12.398Z,99.93
2022-12-17T12:39:02.514Z,110.13
2022-12-17T12:42:01.574Z,108.63
2022-12-17T12:45:02.699Z,104.60
2022-12-17T12:48:11.958Z,112.85
2022-12-17T12:51:33.757Z,109.32
2022-12-17T12:54:38.518Z,103.80
2022-12-17T12:57:44.506Z,109.07
2022-12-17T13:00:44.783Z,99.50
2022-12-17T13:03:58.347Z,108.80
2022-12-17T13:06:43.948Z,110.60
2022-12-17T13:09:32.204Z,109.80
2022-12-17T13:12:02.749Z,108.05
2022-12-17T13:14:36.094Z,118.80
2022-12-17T13:17:22.976Z,111.00
2022-12-17T13:20:05.137Z,119.00
2022-12-17T13:22:36.666Z,113.95
2022-12-17T13:25:20.821Z,110.63
2022-12-17T13:27:51.465Z,110.40
2022-12-17T13:30:31.567Z,111.68
2022-12-17T13:33:07.855Z,111.97
2022-12-17T13:35:44.001Z,109.00
2022-12-17T13:38:30.033Z,111.45
2022-12-17T13:41:11.586Z,110.30
2022-12-17T13:43:49.818Z,104.45
2022-12-17T13:46:49.806Z,105.90
2022-12-17T13:50:32.347Z,98.80
2022-12-17T13:52:48.346Z,101.95
2022-12-17T13:55:34.321Z,101.90
2022-12-17T13:58:01.883Z,101.20
2022-12-17T14:00:31.162Z,101.63
2022-12-17T14:03:12.832Z,95.85
2022-12-17T14:05:44.700Z,110.22
2022-12-17T14:08:20.972Z,101.38
2022-12-17T14:11:14.562Z,104.95
2022-12-17T14:13:44.298Z,97.25
2022-12-17T14:16:20.038Z,92.32
2022-12-17T14:18:54.550Z,94.10
2022-12-17T14:21:27.149Z,93.55
2022-12-17T14:23:55.795Z,93.95
2022-12-17T14:26:22.972Z,92.28
2022-12-17T14:28:53.010Z,85.85
2022-12-17T14:31:29.257Z,88.28
2022-12-17T14:34:13.648Z,87.47
2022-12-17T14:36:43.060Z,94.35
2022-12-17T14:39:31.715Z,93.57
2022-12-17T14:42:25.467Z,101.22
2022-12-17T14:45:03.970Z,97.90
2022-12-17T14:47:36.644Z,92.38
2022-12-17T14:50:13.950Z,97.38
2022-12-17T14:52:50.572Z,99.32
2022-12-17T14:55:27.154Z,100.57
2022-12-17T14:58:12.879Z,108.28
2022-12-17T15:03:40.784Z,101.65
2022-12-17T15:06:11.292Z,95.13
2022-12-17T15:08:48.207Z,95.32
2022-12-17T15:11:23.426Z,95.28
2022-12-17T15:13:56.065Z,98.18
2022-12-17T15:16:24.449Z,95.13
2022-12-17T15:18:51.679Z,92.55
2022-12-17T15:21:20.035Z,91.45
2022-12-17T15:23:49.252Z,104.75
2022-12-17T15:26:17.964Z,97.93
2022-12-17T15:28:45.983Z,114.13
2022-12-17T15:31:14.419Z,110.43
2022-12-17T15:33:42.163Z,105.13
2022-12-17T15:36:12.580Z,118.63
2022-12-17T15:38:40.491Z,117.88
2022-12-17T15:41:26.926Z,113.68
2022-12-17T15:43:54.380Z,110.50
2022-12-17T15:46:21.811Z,116.65
2022-12-17T15:48:50.484Z,109.15
2022-12-17T15:51:19.909Z,112.05
2022-12-17T15:53:49.624Z,107.85
2022-12-17T15:56:28.090Z,102.32
2022-12-17T15:58:59.184Z,99.45
2022-12-17T16:01:26.708Z,96.05
2022-12-17T16:03:55.564Z,99.43
2022-12-17T16:06:22.894Z,97.68
2022-12-17T16:08:50.263Z,103.82
2022-12-17T16:11:18.036Z,96.65
2022-12-17T16:13:45.419Z,97.68
2022-12-17T16:16:12.655Z,103.78
2022-12-17T16:18:40.326Z,98.25
2022-12-17T16:21:09.370Z,107.88
2022-12-17T16:23:36.496Z,104.25
2022-12-17T16:26:09.141Z,98.32
2022-12-17T16:28:37.181Z,107.20
2022-12-17T16:31:15.970Z,109.30
2022-12-17T16:33:47.914Z,103.82
2022-12-17T16:36:19.574Z,96.72
2022-12-17T16:38:52.591Z,99.13
2022-12-17T16:41:22.239Z,99.15
2022-12-17T16:43:53.271Z,104.43
2022-12-17T16:46:32.586Z,111.32
2022-12-17T16:49:25.578Z,106.78
2022-12-17T16:51:54.141Z,105.55
2022-12-17T16:54:26.042Z,107.87
2022-12-17T16:56:54.393Z,102.43
2022-12-17T16:59:23.639Z,113.88
2022-12-17T17:01:52.691Z,119.18
2022-12-17T17:04:24.553Z,109.18
2022-12-17T17:06:58.522Z,111.75
2022-12-17T17:09:27.040Z,112.20
2022-12-17T17:11:59.108Z,103.70
2022-12-17T17:14:26.494Z,107.97
2022-12-17T17:16:53.785Z,106.03
2022-12-17T17:19:23.737Z,106.20
2022-12-17T17:21:54.903Z,102.85
2022-12-17T17:24:25.615Z,102.25
2022-12-17T17:26:55.064Z,101.68
2022-12-17T17:29:22.698Z,100.63
2022-12-17T17:32:09.873Z,101.38
2022-12-17T17:34:39.564Z,103.30
2022-12-17T17:37:06.712Z,105.60
2022-12-17T17:39:34.517Z,106.70
2022-12-17T17:42:02.178Z,109.75
2022-12-17T17:44:29.214Z,106.45
2022-12-17T17:47:00.674Z,110.00
2022-12-17T17:49:30.058Z,110.15
2022-12-17T17:52:09.530Z,115.30
2022-12-17T17:54:39.829Z,102.65
2022-12-17T17:57:07.464Z,106.50
2022-12-17T17:59:34.868Z,110.72
2022-12-17T18:02:03.875Z,113.47
2022-12-17T18:04:32.040Z,97.15
2022-12-17T18:09:49.177Z,92.93
2022-12-17T18:12:35.234Z,102.32
2022-12-17T18:18:09.659Z,95.55
2022-12-17T18:20:40.036Z,104.43
2022-12-17T18:23:09.237Z,97.75
2022-12-17T18:25:37.872Z,96.32
2022-12-17T18:28:05.639Z,90.28
2022-12-17T18:30:33.278Z,96.15
2022-12-17T18:33:03.668Z,98.43
2022-12-17T18:35:31.435Z,93.57
2022-12-17T18:37:58.856Z,100.72
2022-12-17T18:40:31.554Z,90.25
2022-12-17T18:43:20.193Z,105.82
2022-12-17T18:45:48.057Z,102.60
2022-12-17T18:48:15.926Z,90.95
2022-12-17T18:50:43.509Z,96.28
2022-12-17T18:53:11.207Z,86.03
2022-12-17T18:55:42.179Z,95.78
2022-12-17T18:58:10.526Z,99.40
2022-12-17T19:00:38.920Z,102.05
2022-12-17T19:03:07.954Z,94.90
2022-12-17T19:05:38.607Z,101.30
2022-12-17T19:08:09.598Z,99.63
2022-12-17T19:10:38.402Z,109.25
2022-12-17T19:13:05.930Z,104.85
2022-12-17T19:15:33.737Z,102.85
2022-12-17T19:18:01.562Z,102.07
2022-12-17T19:20:29.284Z,95.40
2022-12-17T19:22:56.892Z,100.78
2022-12-17T19:25:24.485Z,91.20
2022-12-17T19:27:52.140Z,102.47
2022-12-17T19:30:19.869Z,90.90
2022-12-17T19:32:48.415Z,99.35
2022-12-17T19:35:17.927Z,97.47
2022-12-17T19:37:45.588Z,98.75
2022-12-17T19:40:13.480Z,87.28
2022-12-17T19:42:42.392Z,97.15
2022-12-17T19:45:11.306Z,112.53
2022-12-17T19:47:44.400Z,92.10
2022-12-17T19:50:12.290Z,99.95
2022-12-17T19:52:39.803Z,96.75
2022-12-17T19:55:07.647Z,116.30
2022-12-17T19:57:35.842Z,105.95
2022-12-17T20:00:03.738Z,111.38
2022-12-17T20:02:40.442Z,94.45
2022-12-17T20:05:08.142Z,85.90
2022-12-17T20:07:35.958Z,90.18
2022-12-17T20:10:04.013Z,102.75
2022-12-17T20:12:32.277Z,106.25
2022-12-17T20:15:00.054Z,100.80
2022-12-17T20:17:27.935Z,101.18
2022-12-17T20:19:57.940Z,99.57
2022-12-17T20:22:25.908Z,107.85
2022-12-17T20:24:54.912Z,106.38
2022-12-17T20:27:22.345Z,99.72
2022-12-17T20:29:50.189Z,105.72
2022-12-17T20:32:20.981Z,106.60
2022-12-17T20:34:49.440Z,102.30
2022-12-17T20:37:20.211Z,101.22
2022-12-17T20:39:48.084Z,105.70
2022-12-17T20:42:17.972Z,98.22
2022-12-17T20:44:51.561Z,95.38
2022-12-17T20:47:20.815Z,100.10
2022-12-17T20:49:49.893Z,100.18
2022-12-17T20:52:19.530Z,96.72
2022-12-17T20:54:47.942Z,98.28
2022-12-17T20:57:15.699Z,100.15
2022-12-17T20:59:43.303Z,93.45
2022-12-17T21:02:11.563Z,98.57
2022-12-17T21:04:40.258Z,93.75
2022-12-17T21:07:07.951Z,105.60
2022-12-17T21:09:35.987Z,99.15
2022-12-17T21:12:03.691Z,95.60
2022-12-17T21:14:35.460Z,96.72
2022-12-17T21:17:04.940Z,99.93
2022-12-17T21:19:33.155Z,101.25
2022-12-17T21:22:01.017Z,115.25
2022-12-17T21:24:28.866Z,106.45
2022-12-17T21:26:56.589Z,109.38
2022-12-17T21:29:24.413Z,103.47
2022-12-17T21:31:52.766Z,110.70
2022-12-17T21:34:25.510Z,105.60
2022-12-17T21:36:57.792Z,101.82
2022-12-17T21:39:27.785Z,102.93
2022-12-17T21:42:15.945Z,93.65
2022-12-17T21:44:43.516Z,100.35
2022-12-17T21:47:12.019Z,103.88
2022-12-17T21:49:39.501Z,101.75
2022-12-17T21:52:06.934Z,100.45
2022-12-17T21:54:38.611Z,108.70
2022-12-17T21:57:08.188Z,115.80
2022-12-17T21:59:35.581Z,104.25
2022-12-17T22:02:03.300Z,112.47
2022-12-17T22:04:31.424Z,104.65
2022-12-17T22:07:04.366Z,111.05
2022-12-17T22:10:03.902Z,105.35
2022-12-17T22:12:53.541Z,103.30
2022-12-17T22:15:21.233Z,108.75
2022-12-17T22:17:50.610Z,96.75
2022-12-17T22:20:19.549Z,114.63
2022-12-17T22:22:50.374Z,106.20
2022-12-17T22:25:18.009Z,107.05
2022-12-17T22:27:45.895Z,118.30
2022-12-17T22:30:33.919Z,109.18
2022-12-17T22:33:02.538Z,109.38
2022-12-17T22:37:18.843Z,113.50
2022-12-17T22:41:05.801Z,109.88
2022-12-17T22:44:36.168Z,110.22
2022-12-17T22:44:46.803Z,104.07
2022-12-17T22:47:16.494Z,102.20
2022-12-17T22:49:44.048Z,105.28
2022-12-17T22:52:14.607Z,99.38
2022-12-17T22:54:45.608Z,93.60
2022-12-17T22:57:36.229Z,102.55
2022-12-17T23:00:01.343Z,111.00
2022-12-17T23:02:28.829Z,109.93
2022-12-17T23:04:56.366Z,100.90
2022-12-17T23:07:29.921Z,106.03
2022-12-17T23:09:59.372Z,102.93
2022-12-17T23:12:45.811Z,96.60
2022-12-17T23:15:13.334Z,99.15
2022-12-17T23:17:40.908Z,101.43
2022-12-17T23:20:08.677Z,89.57
2022-12-17T23:22:36.370Z,92.53
2022-12-17T23:25:04.097Z,96.80
2022-12-17T23:27:31.834Z,98.55
2022-12-17T23:30:00.000Z,91.68
2022-12-17T23:32:27.574Z,91.53
2022-12-17T23:34:55.077Z,94.05
2022-12-17T23:37:22.579Z,98.05
2022-12-17T23:39:50.114Z,95.28
2022-12-17T23:42:18.491Z,95.18
2022-12-17T23:44:45.894Z,87.78
2022-12-17T23:47:13.461Z,82.60
2022-12-17T23:49:41.173Z,83.13
2022-12-17T23:52:09.403Z,82.55
2022-12-17T23:54:37.009Z,89.53
2022-12-17T23:57:05.117Z,88.25
2022-12-17T23:59:32.629Z,77.13
